sensor_id;sensor_type;location;lat;lon;timestamp;pressure;altitude;pressure_sealevel;temperature;humidity
75594;BME280;64176;49.156;7.810;2023-02-28T00:01:52;99995.38;;;-0.56;58.43
75594;BME280;64176;49.156;7.810;2023-02-28T00:04:36;99994.06;;;-0.50;57.51
75594;BME280;64176;49.156;7.810;2023-02-28T00:07:20;99962.16;;;-0.59;57.78
75594;BME280;64176;49.156;7.810;2023-02-28T00:10:05;99982.69;;;-0.56;57.93
75594;BME280;64176;49.156;7.810;2023-02-28T00:13:04;99992.41;;;-0.49;57.10
75594;BME280;64176;49.156;7.810;2023-02-28T00:16:04;99978.53;;;-0.54;57.02
75594;BME280;64176;49.156;7.810;2023-02-28T00:18:49;99996.00;;;-0.46;56.54
75594;BME280;64176;49.156;7.810;2023-02-28T00:21:36;99988.56;;;-0.43;56.00
75594;BME280;64176;49.156;7.810;2023-02-28T00:24:20;99986.25;;;-0.53;56.49
75594;BME280;64176;49.156;7.810;2023-02-28T00:27:06;99982.34;;;-0.48;55.95
75594;BME280;64176;49.156;7.810;2023-02-28T00:29:50;99988.97;;;-0.50;55.70
75594;BME280;64176;49.156;7.810;2023-02-28T00:32:34;99985.66;;;-0.49;55.80
75594;BME280;64176;49.156;7.810;2023-02-28T00:35:18;99965.94;;;-0.53;55.74
75594;BME280;64176;49.156;7.810;2023-02-28T00:38:02;99985.75;;;-0.47;55.67
75594;BME280;64176;49.156;7.810;2023-02-28T00:40:46;99983.13;;;-0.49;55.18
75594;BME280;64176;49.156;7.810;2023-02-28T00:43:35;99972.59;;;-0.55;55.80
75594;BME280;64176;49.156;7.810;2023-02-28T00:46:19;99987.13;;;-0.52;55.35
75594;BME280;64176;49.156;7.810;2023-02-28T00:49:15;99990.75;;;-0.49;54.91
75594;BME280;64176;49.156;7.810;2023-02-28T00:52:04;99989.56;;;-0.54;55.04
75594;BME280;64176;49.156;7.810;2023-02-28T00:54:48;99983.13;;;-0.49;55.33
75594;BME280;64176;49.156;7.810;2023-02-28T00:57:32;99980.50;;;-0.50;54.81
75594;BME280;64176;49.156;7.810;2023-02-28T01:00:16;99984.25;;;-0.44;54.62
75594;BME280;64176;49.156;7.810;2023-02-28T01:03:00;99987.75;;;-0.56;55.85
75594;BME280;64176;49.156;7.810;2023-02-28T01:05:49;99987.22;;;-0.51;54.48
75594;BME280;64176;49.156;7.810;2023-02-28T01:08:40;99989.09;;;-0.48;55.09
75594;BME280;64176;49.156;7.810;2023-02-28T01:11:27;99987.81;;;-0.55;54.96
75594;BME280;64176;49.156;7.810;2023-02-28T01:14:13;99985.03;;;-0.59;55.37
75594;BME280;64176;49.156;7.810;2023-02-28T01:16:57;99982.06;;;-0.52;55.15
75594;BME280;64176;49.156;7.810;2023-02-28T01:19:45;99965.03;;;-0.68;56.03
75594;BME280;64176;49.156;7.810;2023-02-28T01:22:29;99989.50;;;-0.55;54.86
75594;BME280;64176;49.156;7.810;2023-02-28T01:25:15;99993.41;;;-0.60;55.34
75594;BME280;64176;49.156;7.810;2023-02-28T01:28:02;99991.88;;;-0.71;55.93
75594;BME280;64176;49.156;7.810;2023-02-28T01:30:50;99969.81;;;-0.73;55.61
75594;BME280;64176;49.156;7.810;2023-02-28T01:33:41;99985.13;;;-0.58;55.40
75594;BME280;64176;49.156;7.810;2023-02-28T01:36:25;99993.22;;;-0.63;56.22
75594;BME280;64176;49.156;7.810;2023-02-28T01:39:09;99963.41;;;-0.81;55.79
75594;BME280;64176;49.156;7.810;2023-02-28T01:41:53;99980.25;;;-0.68;56.31
75594;BME280;64176;49.156;7.810;2023-02-28T01:48:16;99989.44;;;-0.42;55.47
75594;BME280;64176;49.156;7.810;2023-02-28T01:51:09;99984.50;;;-0.54;55.28
75594;BME280;64176;49.156;7.810;2023-02-28T01:54:30;99981.38;;;-0.50;55.89
75594;BME280;64176;49.156;7.810;2023-02-28T01:57:19;99965.84;;;-0.54;55.48
75594;BME280;64176;49.156;7.810;2023-02-28T02:00:17;99976.72;;;-0.57;56.26
75594;BME280;64176;49.156;7.810;2023-02-28T02:03:11;99974.09;;;-0.58;56.90
75594;BME280;64176;49.156;7.810;2023-02-28T02:05:59;99979.81;;;-0.48;56.20
75594;BME280;64176;49.156;7.810;2023-02-28T02:08:43;99975.97;;;-0.41;56.27
75594;BME280;64176;49.156;7.810;2023-02-28T02:11:32;99966.03;;;-0.51;56.34
75594;BME280;64176;49.156;7.810;2023-02-28T02:17:42;99965.44;;;-0.47;56.06
75594;BME280;64176;49.156;7.810;2023-02-28T02:39:42;99953.59;;;-0.61;58.37
75594;BME280;64176;49.156;7.810;2023-02-28T02:45:36;99960.78;;;-0.54;58.97
75594;BME280;64176;49.156;7.810;2023-02-28T02:48:29;99958.31;;;-0.67;59.31
75594;BME280;64176;49.156;7.810;2023-02-28T02:51:19;99967.09;;;-0.76;59.82
75594;BME280;64176;49.156;7.810;2023-02-28T02:54:25;99965.63;;;-0.72;59.75
75594;BME280;64176;49.156;7.810;2023-02-28T02:57:24;99968.25;;;-0.70;60.32
75594;BME280;64176;49.156;7.810;2023-02-28T03:00:22;99946.13;;;-0.86;60.66
75594;BME280;64176;49.156;7.810;2023-02-28T03:03:10;99959.59;;;-0.87;61.11
75594;BME280;64176;49.156;7.810;2023-02-28T03:06:01;99930.16;;;-0.98;60.77
75594;BME280;64176;49.156;7.810;2023-02-28T03:08:49;99962.66;;;-0.93;61.29
75594;BME280;64176;49.156;7.810;2023-02-28T03:11:37;99967.22;;;-0.87;61.36
75594;BME280;64176;49.156;7.810;2023-02-28T03:18:01;99958.34;;;-0.94;61.76
75594;BME280;64176;49.156;7.810;2023-02-28T03:27:06;99956.13;;;-1.02;62.45
75594;BME280;64176;49.156;7.810;2023-02-28T03:30:04;99950.38;;;-1.00;62.25
75594;BME280;64176;49.156;7.810;2023-02-28T03:32:55;99933.03;;;-1.20;62.02
75594;BME280;64176;49.156;7.810;2023-02-28T03:35:50;99949.63;;;-1.12;62.21
75594;BME280;64176;49.156;7.810;2023-02-28T03:38:40;99937.63;;;-1.28;63.22
75594;BME280;64176;49.156;7.810;2023-02-28T03:41:36;99930.91;;;-1.27;62.72
75594;BME280;64176;49.156;7.810;2023-02-28T03:44:48;99950.72;;;-1.22;63.36
75594;BME280;64176;49.156;7.810;2023-02-28T03:50:49;99957.44;;;-1.35;63.42
75594;BME280;64176;49.156;7.810;2023-02-28T03:53:42;99957.13;;;-1.40;64.17
75594;BME280;64176;49.156;7.810;2023-02-28T03:56:37;99937.16;;;-1.62;64.26
75594;BME280;64176;49.156;7.810;2023-02-28T03:59:29;99961.31;;;-1.54;65.20
75594;BME280;64176;49.156;7.810;2023-02-28T04:02:16;99960.38;;;-1.56;65.18
75594;BME280;64176;49.156;7.810;2023-02-28T04:05:00;99956.44;;;-1.64;65.74
75594;BME280;64176;49.156;7.810;2023-02-28T04:07:47;99960.84;;;-1.48;64.58
75594;BME280;64176;49.156;7.810;2023-02-28T04:10:32;99962.91;;;-1.56;65.18
75594;BME280;64176;49.156;7.810;2023-02-28T04:13:16;99959.84;;;-1.63;65.90
75594;BME280;64176;49.156;7.810;2023-02-28T04:16:07;99958.09;;;-1.77;66.51
75594;BME280;64176;49.156;7.810;2023-02-28T04:18:55;99960.63;;;-1.64;66.13
75594;BME280;64176;49.156;7.810;2023-02-28T04:21:51;99963.84;;;-1.80;67.04
75594;BME280;64176;49.156;7.810;2023-02-28T04:24:36;99958.00;;;-1.79;66.28
75594;BME280;64176;49.156;7.810;2023-02-28T04:27:29;99953.41;;;-1.85;67.48
75594;BME280;64176;49.156;7.810;2023-02-28T04:30:16;99955.06;;;-1.85;66.69
75594;BME280;64176;49.156;7.810;2023-02-28T04:33:00;99957.28;;;-1.76;67.19
75594;BME280;64176;49.156;7.810;2023-02-28T04:35:45;99960.44;;;-1.80;67.17
75594;BME280;64176;49.156;7.810;2023-02-28T04:38:33;99954.59;;;-1.79;67.56
75594;BME280;64176;49.156;7.810;2023-02-28T04:41:19;99958.00;;;-1.79;66.85
75594;BME280;64176;49.156;7.810;2023-02-28T04:44:03;99947.66;;;-1.82;67.37
75594;BME280;64176;49.156;7.810;2023-02-28T04:46:50;99952.41;;;-1.87;67.70
75594;BME280;64176;49.156;7.810;2023-02-28T04:49:34;99960.50;;;-1.92;68.27
75594;BME280;64176;49.156;7.810;2023-02-28T04:52:20;99951.53;;;-1.87;67.70
75594;BME280;64176;49.156;7.810;2023-02-28T04:55:07;99962.53;;;-1.87;68.21
75594;BME280;64176;49.156;7.810;2023-02-28T04:57:51;99960.28;;;-1.95;67.95
75594;BME280;64176;49.156;7.810;2023-02-28T05:00:38;99959.94;;;-1.88;68.09
75594;BME280;64176;49.156;7.810;2023-02-28T05:03:21;99964.59;;;-1.94;67.83
75594;BME280;64176;49.156;7.810;2023-02-28T05:06:07;99961.19;;;-1.95;68.24
75594;BME280;64176;49.156;7.810;2023-02-28T05:08:54;99951.34;;;-1.90;68.39
75594;BME280;64176;49.156;7.810;2023-02-28T05:11:39;99965.59;;;-1.79;68.19
75594;BME280;64176;49.156;7.810;2023-02-28T05:14:23;99971.22;;;-1.83;68.16
75594;BME280;64176;49.156;7.810;2023-02-28T05:17:08;99954.00;;;-1.89;68.21
75594;BME280;64176;49.156;7.810;2023-02-28T05:19:55;99978.84;;;-1.83;68.20
75594;BME280;64176;49.156;7.810;2023-02-28T05:22:42;99961.88;;;-1.84;67.70
75594;BME280;64176;49.156;7.810;2023-02-28T05:25:26;99962.25;;;-1.91;68.49
75594;BME280;64176;49.156;7.810;2023-02-28T05:28:10;99973.00;;;-1.82;68.15
75594;BME280;64176;49.156;7.810;2023-02-28T05:30:54;99965.97;;;-1.86;68.57
75594;BME280;64176;49.156;7.810;2023-02-28T05:33:43;99981.28;;;-1.71;67.86
75594;BME280;64176;49.156;7.810;2023-02-28T05:36:27;99983.03;;;-1.70;68.67
75594;BME280;64176;49.156;7.810;2023-02-28T05:39:11;99982.38;;;-1.68;68.02
75594;BME280;64176;49.156;7.810;2023-02-28T05:41:59;99970.69;;;-1.66;68.09
75594;BME280;64176;49.156;7.810;2023-02-28T05:44:43;99986.06;;;-1.63;67.85
75594;BME280;64176;49.156;7.810;2023-02-28T05:47:30;99981.59;;;-1.67;68.51
75594;BME280;64176;49.156;7.810;2023-02-28T05:50:19;99974.47;;;-1.59;68.43
75594;BME280;64176;49.156;7.810;2023-02-28T05:53:03;99973.31;;;-1.51;68.53
75594;BME280;64176;49.156;7.810;2023-02-28T05:55:47;99971.88;;;-1.48;67.98
75594;BME280;64176;49.156;7.810;2023-02-28T05:58:31;99980.44;;;-1.59;68.02
75594;BME280;64176;49.156;7.810;2023-02-28T06:01:30;99979.81;;;-1.55;67.76
75594;BME280;64176;49.156;7.810;2023-02-28T06:04:19;99987.38;;;-1.56;67.85
75594;BME280;64176;49.156;7.810;2023-02-28T06:07:04;99981.13;;;-1.48;67.55
75594;BME280;64176;49.156;7.810;2023-02-28T06:09:47;99978.00;;;-1.57;68.06
75594;BME280;64176;49.156;7.810;2023-02-28T06:12:37;99979.00;;;-1.55;67.89
75594;BME280;64176;49.156;7.810;2023-02-28T06:15:26;99980.34;;;-1.47;67.04
75594;BME280;64176;49.156;7.810;2023-02-28T06:18:11;99983.94;;;-1.30;67.48
75594;BME280;64176;49.156;7.810;2023-02-28T06:20:57;99982.56;;;-1.52;67.35
75594;BME280;64176;49.156;7.810;2023-02-28T06:23:41;99985.78;;;-1.41;66.79
75594;BME280;64176;49.156;7.810;2023-02-28T06:26:25;99973.22;;;-1.53;67.15
75594;BME280;64176;49.156;7.810;2023-02-28T06:29:09;99986.47;;;-1.30;66.64
75594;BME280;64176;49.156;7.810;2023-02-28T06:31:53;99988.94;;;-1.45;67.09
75594;BME280;64176;49.156;7.810;2023-02-28T06:34:40;99978.78;;;-1.45;66.46
75594;BME280;64176;49.156;7.810;2023-02-28T06:37:26;99987.34;;;-1.43;66.92
75594;BME280;64176;49.156;7.810;2023-02-28T06:40:11;100010.06;;;-1.18;66.32
75594;BME280;64176;49.156;7.810;2023-02-28T06:42:59;100006.56;;;-1.20;66.53
75594;BME280;64176;49.156;7.810;2023-02-28T06:45:43;99999.94;;;-1.18;66.41
75594;BME280;64176;49.156;7.810;2023-02-28T06:48:28;100003.44;;;-1.29;66.65
75594;BME280;64176;49.156;7.810;2023-02-28T06:51:15;100014.56;;;-1.14;65.80
75594;BME280;64176;49.156;7.810;2023-02-28T06:54:08;100009.72;;;-1.11;65.94
75594;BME280;64176;49.156;7.810;2023-02-28T06:56:53;100015.47;;;-1.14;65.42
75594;BME280;64176;49.156;7.810;2023-02-28T06:59:40;100012.34;;;-1.23;66.49
75594;BME280;64176;49.156;7.810;2023-02-28T07:02:27;100021.09;;;-1.04;66.03
75594;BME280;64176;49.156;7.810;2023-02-28T07:05:11;100025.59;;;-1.00;65.66
75594;BME280;64176;49.156;7.810;2023-02-28T07:07:57;100017.88;;;-1.15;65.83
75594;BME280;64176;49.156;7.810;2023-02-28T07:10:44;100030.66;;;-1.14;65.79
75594;BME280;64176;49.156;7.810;2023-02-28T07:13:28;100024.31;;;-1.07;65.63
75594;BME280;64176;49.156;7.810;2023-02-28T07:16:12;100027.94;;;-1.03;66.10
75594;BME280;64176;49.156;7.810;2023-02-28T07:18:57;100026.47;;;-1.13;65.52
75594;BME280;64176;49.156;7.810;2023-02-28T07:21:41;100031.56;;;-1.00;65.50
75594;BME280;64176;49.156;7.810;2023-02-28T07:24:25;100032.50;;;-0.98;65.47
75594;BME280;64176;49.156;7.810;2023-02-28T07:27:15;100044.31;;;-0.85;65.32
75594;BME280;64176;49.156;7.810;2023-02-28T07:30:09;100037.47;;;-0.99;64.84
75594;BME280;64176;49.156;7.810;2023-02-28T07:32:54;100032.59;;;-0.83;65.45
75594;BME280;64176;49.156;7.810;2023-02-28T07:35:40;100041.28;;;-0.80;64.63
75594;BME280;64176;49.156;7.810;2023-02-28T07:38:24;100027.63;;;-0.95;64.98
75594;BME280;64176;49.156;7.810;2023-02-28T07:41:08;100019.72;;;-0.86;65.19
75594;BME280;64176;49.156;7.810;2023-02-28T07:43:54;100046.03;;;-0.58;64.26
75594;BME280;64176;49.156;7.810;2023-02-28T07:46:39;100035.47;;;-0.51;64.33
75594;BME280;64176;49.156;7.810;2023-02-28T07:49:23;100026.22;;;-0.63;64.11
75594;BME280;64176;49.156;7.810;2023-02-28T07:52:07;100038.00;;;-0.51;64.03
75594;BME280;64176;49.156;7.810;2023-02-28T07:54:54;100036.31;;;-0.78;64.45
75594;BME280;64176;49.156;7.810;2023-02-28T07:57:40;100043.28;;;-0.61;64.02
75594;BME280;64176;49.156;7.810;2023-02-28T08:00:24;100037.91;;;-0.52;63.76
75594;BME280;64176;49.156;7.810;2023-02-28T08:03:12;100037.50;;;-0.45;64.15
75594;BME280;64176;49.156;7.810;2023-02-28T08:05:56;100044.38;;;-0.57;63.58
75594;BME280;64176;49.156;7.810;2023-02-28T08:08:40;100043.81;;;-0.80;63.94
75594;BME280;64176;49.156;7.810;2023-02-28T08:11:24;100043.19;;;-0.62;63.67
75594;BME280;64176;49.156;7.810;2023-02-28T08:14:11;100042.41;;;-0.61;64.04
75594;BME280;64176;49.156;7.810;2023-02-28T08:16:54;100047.78;;;-0.57;63.87
75594;BME280;64176;49.156;7.810;2023-02-28T08:19:45;100053.13;;;-0.52;63.53
75594;BME280;64176;49.156;7.810;2023-02-28T08:22:29;100043.19;;;-0.49;63.45
75594;BME280;64176;49.156;7.810;2023-02-28T08:25:15;100041.13;;;-0.55;63.05
75594;BME280;64176;49.156;7.810;2023-02-28T08:28:02;100050.50;;;-0.54;63.06
75594;BME280;64176;49.156;7.810;2023-02-28T08:30:51;100034.69;;;-0.50;63.25
75594;BME280;64176;49.156;7.810;2023-02-28T08:33:36;100054.91;;;-0.51;63.40
75594;BME280;64176;49.156;7.810;2023-02-28T08:36:20;100046.81;;;-0.59;63.14
75594;BME280;64176;49.156;7.810;2023-02-28T08:39:09;100046.91;;;-0.29;63.27
75594;BME280;64176;49.156;7.810;2023-02-28T08:41:55;100043.31;;;-0.33;63.34
75594;BME280;64176;49.156;7.810;2023-02-28T08:44:41;100049.97;;;-0.07;62.36
75594;BME280;64176;49.156;7.810;2023-02-28T08:47:25;100044.16;;;-0.19;62.26
75594;BME280;64176;49.156;7.810;2023-02-28T08:50:12;100051.63;;;-0.22;63.16
75594;BME280;64176;49.156;7.810;2023-02-28T08:52:58;100057.53;;;0.06;62.01
75594;BME280;64176;49.156;7.810;2023-02-28T08:55:43;100062.09;;;0.12;62.12
75594;BME280;64176;49.156;7.810;2023-02-28T08:58:31;100056.63;;;0.19;61.59
75594;BME280;64176;49.156;7.810;2023-02-28T09:01:16;100064.69;;;0.26;62.13
75594;BME280;64176;49.156;7.810;2023-02-28T09:04:01;100063.84;;;0.13;61.78
75594;BME280;64176;49.156;7.810;2023-02-28T09:06:47;100054.94;;;0.34;61.83
75594;BME280;64176;49.156;7.810;2023-02-28T09:09:32;100053.53;;;0.10;62.36
75594;BME280;64176;49.156;7.810;2023-02-28T09:12:23;100047.38;;;0.06;61.88
75594;BME280;64176;49.156;7.810;2023-02-28T09:15:08;100055.22;;;0.39;61.49
75594;BME280;64176;49.156;7.810;2023-02-28T09:17:57;100052.66;;;0.24;61.80
75594;BME280;64176;49.156;7.810;2023-02-28T09:20:42;100058.22;;;0.04;62.19
75594;BME280;64176;49.156;7.810;2023-02-28T09:23:29;100061.16;;;0.10;62.21
75594;BME280;64176;49.156;7.810;2023-02-28T09:26:25;100053.56;;;0.39;61.28
75594;BME280;64176;49.156;7.810;2023-02-28T09:29:12;100060.03;;;0.34;61.76
75594;BME280;64176;49.156;7.810;2023-02-28T09:31:56;100059.53;;;0.40;61.21
75594;BME280;64176;49.156;7.810;2023-02-28T09:34:42;100050.75;;;0.49;61.11
75594;BME280;64176;49.156;7.810;2023-02-28T09:37:28;100058.03;;;0.58;60.54
75594;BME280;64176;49.156;7.810;2023-02-28T09:40:13;100057.16;;;0.72;60.82
75594;BME280;64176;49.156;7.810;2023-02-28T09:42:59;100056.81;;;0.81;60.58
75594;BME280;64176;49.156;7.810;2023-02-28T09:45:50;100047.59;;;0.39;61.50
75594;BME280;64176;49.156;7.810;2023-02-28T09:48:38;100057.84;;;0.25;61.74
75594;BME280;64176;49.156;7.810;2023-02-28T09:51:56;100064.63;;;0.40;61.62
75594;BME280;64176;49.156;7.810;2023-02-28T09:54:43;100052.78;;;0.40;61.31
75594;BME280;64176;49.156;7.810;2023-02-28T09:57:37;100058.75;;;0.41;61.27
75594;BME280;64176;49.156;7.810;2023-02-28T10:00:30;100056.31;;;0.14;61.75
75594;BME280;64176;49.156;7.810;2023-02-28T10:06:14;100036.47;;;0.51;60.97
75594;BME280;64176;49.156;7.810;2023-02-28T10:09:08;100055.03;;;0.35;61.24
75594;BME280;64176;49.156;7.810;2023-02-28T10:12:03;100032.44;;;0.40;61.44
75594;BME280;64176;49.156;7.810;2023-02-28T10:14:52;100053.56;;;0.68;61.00
75594;BME280;64176;49.156;7.810;2023-02-28T10:17:47;100048.47;;;0.83;60.05
75594;BME280;64176;49.156;7.810;2023-02-28T10:20:38;100046.91;;;0.85;59.63
75594;BME280;64176;49.156;7.810;2023-02-28T10:23:28;100042.31;;;1.09;60.03
75594;BME280;64176;49.156;7.810;2023-02-28T10:26:17;100049.25;;;0.97;59.96
75594;BME280;64176;49.156;7.810;2023-02-28T10:29:03;100044.09;;;0.95;59.76
75594;BME280;64176;49.156;7.810;2023-02-28T10:31:48;100040.88;;;1.14;59.73
75594;BME280;64176;49.156;7.810;2023-02-28T10:34:34;100031.56;;;1.15;59.04
75594;BME280;64176;49.156;7.810;2023-02-28T10:37:21;100033.31;;;1.16;59.19
75594;BME280;64176;49.156;7.810;2023-02-28T10:40:06;100025.81;;;1.33;58.47
75594;BME280;64176;49.156;7.810;2023-02-28T10:46:04;100035.63;;;1.42;58.35
75594;BME280;64176;49.156;7.810;2023-02-28T10:49:12;100031.72;;;1.32;58.16
75594;BME280;64176;49.156;7.810;2023-02-28T10:51:59;100039.50;;;1.35;57.87
75594;BME280;64176;49.156;7.810;2023-02-28T10:54:45;100031.41;;;1.42;56.87
75594;BME280;64176;49.156;7.810;2023-02-28T10:57:30;100026.28;;;1.73;56.70
75594;BME280;64176;49.156;7.810;2023-02-28T11:03:31;100029.13;;;1.79;55.23
75594;BME280;64176;49.156;7.810;2023-02-28T11:06:19;100020.31;;;1.73;54.68
75594;BME280;64176;49.156;7.810;2023-02-28T11:09:21;100021.34;;;1.76;54.28
75594;BME280;64176;49.156;7.810;2023-02-28T11:12:17;100029.63;;;1.72;54.46
75594;BME280;64176;49.156;7.810;2023-02-28T11:15:18;100018.63;;;1.73;54.53
75594;BME280;64176;49.156;7.810;2023-02-28T11:20:58;100009.28;;;1.58;54.37
75594;BME280;64176;49.156;7.810;2023-02-28T11:23:43;100003.50;;;1.76;54.20
75594;BME280;64176;49.156;7.810;2023-02-28T11:26:45;100005.47;;;2.14;54.25
75594;BME280;64176;49.156;7.810;2023-02-28T11:29:34;100008.66;;;2.44;53.48
75594;BME280;64176;49.156;7.810;2023-02-28T11:32:32;99999.72;;;2.18;53.08
75594;BME280;64176;49.156;7.810;2023-02-28T11:35:34;100019.91;;;2.66;52.78
75594;BME280;64176;49.156;7.810;2023-02-28T11:38:20;100007.22;;;2.15;52.45
75594;BME280;64176;49.156;7.810;2023-02-28T11:55:24;100007.69;;;2.94;51.36
75594;BME280;64176;49.156;7.810;2023-02-28T12:01:36;99991.72;;;2.98;50.72
75594;BME280;64176;49.156;7.810;2023-02-28T12:11:15;99998.34;;;2.77;51.38
75594;BME280;64176;49.156;7.810;2023-02-28T12:29:22;99981.66;;;4.15;47.46
75594;BME280;64176;49.156;7.810;2023-02-28T12:32:26;99989.06;;;4.09;48.53
75594;BME280;64176;49.156;7.810;2023-02-28T12:35:15;99997.09;;;3.78;48.08
75594;BME280;64176;49.156;7.810;2023-02-28T12:38:12;99988.41;;;3.55;48.98
75594;BME280;64176;49.156;7.810;2023-02-28T12:41:14;99988.66;;;3.05;49.74
75594;BME280;64176;49.156;7.810;2023-02-28T12:44:11;99980.47;;;3.69;48.96
75594;BME280;64176;49.156;7.810;2023-02-28T12:47:00;99978.19;;;3.75;48.74
75594;BME280;64176;49.156;7.810;2023-02-28T12:49:49;99981.97;;;3.63;49.03
75594;BME280;64176;49.156;7.810;2023-02-28T12:58:33;99963.44;;;3.88;48.01
75594;BME280;64176;49.156;7.810;2023-02-28T13:04:38;99968.66;;;4.30;47.69
75594;BME280;64176;49.156;7.810;2023-02-28T13:10:43;99940.19;;;3.82;47.16
75594;BME280;64176;49.156;7.810;2023-02-28T13:13:31;99962.44;;;4.04;48.31
75594;BME280;64176;49.156;7.810;2023-02-28T13:16:16;99948.53;;;4.18;47.86
75594;BME280;64176;49.156;7.810;2023-02-28T13:19:10;99961.72;;;4.27;46.80
75594;BME280;64176;49.156;7.810;2023-02-28T13:21:59;99961.84;;;4.30;46.20
75594;BME280;64176;49.156;7.810;2023-02-28T13:24:54;99968.22;;;4.40;46.67
75594;BME280;64176;49.156;7.810;2023-02-28T13:27:40;99976.78;;;4.21;46.98
75594;BME280;64176;49.156;7.810;2023-02-28T13:36:43;99947.41;;;4.32;47.13
75594;BME280;64176;49.156;7.810;2023-02-28T13:42:36;99957.22;;;4.43;46.88
75594;BME280;64176;49.156;7.810;2023-02-28T13:45:33;99956.59;;;4.27;45.97
75594;BME280;64176;49.156;7.810;2023-02-28T13:48:25;99961.72;;;4.27;45.57
75594;BME280;64176;49.156;7.810;2023-02-28T13:51:35;99960.78;;;4.25;45.95
75594;BME280;64176;49.156;7.810;2023-02-28T14:01:37;99974.38;;;4.24;46.30
75594;BME280;64176;49.156;7.810;2023-02-28T14:07:22;99966.09;;;4.30;46.48
75594;BME280;64176;49.156;7.810;2023-02-28T14:10:23;99962.53;;;4.26;46.85
75594;BME280;64176;49.156;7.810;2023-02-28T14:16:01;99958.41;;;4.30;46.41
75594;BME280;64176;49.156;7.810;2023-02-28T14:19:24;99965.75;;;4.43;46.63
75594;BME280;64176;49.156;7.810;2023-02-28T14:22:52;99959.81;;;4.65;46.50
75594;BME280;64176;49.156;7.810;2023-02-28T14:26:10;99970.19;;;4.68;45.86
75594;BME280;64176;49.156;7.810;2023-02-28T14:38:55;99958.22;;;4.46;46.60
75594;BME280;64176;49.156;7.810;2023-02-28T14:41:44;99974.81;;;4.35;46.43
75594;BME280;64176;49.156;7.810;2023-02-28T14:44:31;99970.13;;;4.25;46.61
75594;BME280;64176;49.156;7.810;2023-02-28T14:47:19;99979.06;;;3.94;46.80
75594;BME280;64176;49.156;7.810;2023-02-28T14:50:06;99964.72;;;3.98;46.53
75594;BME280;64176;49.156;7.810;2023-02-28T14:52:53;99963.44;;;4.08;47.22
75594;BME280;64176;49.156;7.810;2023-02-28T14:55:44;99951.47;;;4.07;46.76
75594;BME280;64176;49.156;7.810;2023-02-28T14:58:33;99976.94;;;4.24;46.92
75594;BME280;64176;49.156;7.810;2023-02-28T15:01:22;99968.28;;;4.01;47.47
75594;BME280;64176;49.156;7.810;2023-02-28T15:04:20;99962.38;;;3.83;47.50
75594;BME280;64176;49.156;7.810;2023-02-28T15:07:13;99954.44;;;3.77;47.64
75594;BME280;64176;49.156;7.810;2023-02-28T15:12:56;99964.19;;;4.05;47.13
75594;BME280;64176;49.156;7.810;2023-02-28T15:15:55;99964.97;;;4.04;47.51
75594;BME280;64176;49.156;7.810;2023-02-28T15:18:54;99962.75;;;4.12;47.99
75594;BME280;64176;49.156;7.810;2023-02-28T15:21:44;99961.88;;;4.11;47.59
75594;BME280;64176;49.156;7.810;2023-02-28T15:27:24;99962.22;;;3.99;47.62
75594;BME280;64176;49.156;7.810;2023-02-28T15:30:17;99956.75;;;4.11;47.42
75594;BME280;64176;49.156;7.810;2023-02-28T15:36:34;99952.25;;;4.06;46.97
75594;BME280;64176;49.156;7.810;2023-02-28T15:39:23;99970.75;;;4.00;47.61
75594;BME280;64176;49.156;7.810;2023-02-28T15:42:19;99976.03;;;4.03;47.34
75594;BME280;64176;49.156;7.810;2023-02-28T15:45:27;99967.56;;;3.85;47.22
75594;BME280;64176;49.156;7.810;2023-02-28T15:48:24;99967.16;;;3.95;47.72
75594;BME280;64176;49.156;7.810;2023-02-28T15:51:23;99969.88;;;3.99;47.34
75594;BME280;64176;49.156;7.810;2023-02-28T15:54:12;99968.97;;;3.97;48.20
75594;BME280;64176;49.156;7.810;2023-02-28T15:57:05;99980.75;;;3.94;47.80
75594;BME280;64176;49.156;7.810;2023-02-28T15:59:59;99988.53;;;3.78;47.94
75594;BME280;64176;49.156;7.810;2023-02-28T16:02:44;99974.78;;;3.74;48.13
75594;BME280;64176;49.156;7.810;2023-02-28T16:05:30;99983.09;;;3.70;48.27
75594;BME280;64176;49.156;7.810;2023-02-28T16:08:15;99982.22;;;3.70;48.40
75594;BME280;64176;49.156;7.810;2023-02-28T16:10:59;99980.41;;;3.67;49.03
75594;BME280;64176;49.156;7.810;2023-02-28T16:13:43;99957.66;;;3.54;49.32
75594;BME280;64176;49.156;7.810;2023-02-28T16:16:27;99977.50;;;3.59;48.98
75594;BME280;64176;49.156;7.810;2023-02-28T16:19:19;99985.44;;;3.46;48.90
75594;BME280;64176;49.156;7.810;2023-02-28T16:22:08;99985.97;;;3.39;48.81
75594;BME280;64176;49.156;7.810;2023-02-28T16:24:58;99993.56;;;3.38;49.23
75594;BME280;64176;49.156;7.810;2023-02-28T16:27:48;99971.22;;;3.34;49.82
75594;BME280;64176;49.156;7.810;2023-02-28T16:30:33;99983.34;;;3.38;49.80
75594;BME280;64176;49.156;7.810;2023-02-28T16:33:17;99988.91;;;3.29;50.03
75594;BME280;64176;49.156;7.810;2023-02-28T16:36:01;99989.91;;;3.33;49.89
75594;BME280;64176;49.156;7.810;2023-02-28T16:38:45;99998.25;;;3.28;50.22
75594;BME280;64176;49.156;7.810;2023-02-28T16:41:29;100004.81;;;3.23;50.30
75594;BME280;64176;49.156;7.810;2023-02-28T16:44:35;100009.66;;;3.17;50.09
75594;BME280;64176;49.156;7.810;2023-02-28T16:47:19;100008.69;;;3.15;50.23
75594;BME280;64176;49.156;7.810;2023-02-28T16:50:12;100022.13;;;3.11;50.57
75594;BME280;64176;49.156;7.810;2023-02-28T16:53:01;100029.78;;;3.11;50.51
75594;BME280;64176;49.156;7.810;2023-02-28T16:55:45;100027.03;;;3.07;51.00
75594;BME280;64176;49.156;7.810;2023-02-28T16:58:31;100023.22;;;2.99;51.12
75594;BME280;64176;49.156;7.810;2023-02-28T17:01:20;100017.03;;;2.93;51.29
75594;BME280;64176;49.156;7.810;2023-02-28T17:04:09;100012.56;;;2.89;51.49
75594;BME280;64176;49.156;7.810;2023-02-28T17:06:57;100030.59;;;2.75;51.65
75594;BME280;64176;49.156;7.810;2023-02-28T17:09:44;100035.19;;;2.82;51.23
75594;BME280;64176;49.156;7.810;2023-02-28T17:12:28;100023.56;;;2.71;51.30
75594;BME280;64176;49.156;7.810;2023-02-28T17:15:16;100034.66;;;2.71;51.60
75594;BME280;64176;49.156;7.810;2023-02-28T17:18:01;100034.44;;;2.67;51.72
75594;BME280;64176;49.156;7.810;2023-02-28T17:20:48;100037.31;;;2.56;52.08
75594;BME280;64176;49.156;7.810;2023-02-28T17:23:35;100037.41;;;2.58;52.27